Larissa , Thessalia , Greece
39° 38' 00"N, 22° 25' 00"E, Elevation 263 ft.
Χειμερινή Time

Hourly observations for the last 48 hours

Date

Time

Temperature (°C) Humi-
dity
(%)
Wind
(kmph)
Pressure Rain (mm) Sun
(W/m2)
UV ET
(mm)
Air Dew 6 Hour 1 Hr 3 Hr 6 Hr Day
Alt
(in)
Sea
Level
(mb)
Max Min
26 17:00 23.7 5.1 30 SW 13 G 33 29.70 1005.9 0.00 265 0.0 2.489
26 16:00 24.1 2.3 24 SSW 12 G 24 29.72 1006.5 0.00 384 0.0 2.159
26 15:00 24.1 4.4 24.5 12.6 28 S 6 G 12 29.74 1007.2 0.00 432 0.0 1.854
26 14:00 24.1 2.3 24 W 3 G 16 29.76 1008.0 0.00 521 0.0 1.422
26 13:00 23.1 5.5 32 SSW 5 G 11 29.79 1008.8 0.00 624 0.0 1.016
26 12:00 21.3 6.4 38 S 5 G 11 29.82 1010.0 0.00 715 0.0 0.686
26 11:00 17.5 8.9 57 SE 4 G 6 29.85 1010.7 0.00 596 0.0 0.432
26 10:00 14.3 8.3 67 E 1 G 4 29.86 1011.1 0.00 378 0.0 0.279
26 09:00 12.6 7.5 13.6 10.4 71 N 2 G 4 29.87 1011.6 0.00 259 0.0 0.203
26 08:00 10.7 6.5 75 Calm 29.88 1011.7 0.00 25 0.0 0.203
26 07:00 11.1 6.5 73 Calm 29.88 1011.7 0.00 0 0.0 0.178
26 06:00 12.0 7.1 72 NNW 0 G 3 29.88 1011.8 0.00 0 0.0 0.152
26 05:00 12.6 6.4 66 Calm 29.89 1012.1 0.00 0 0.0 0.127
26 03:00 13.6 5.3 18.9 13.6 57 Calm 29.90 1012.7 0.00 0 0.0 0.102
26 02:00 14.5 5.0 53 Calm 29.91 1012.9 0.00 0 0.0 0.051
26 01:00 15.2 4.5 49 Calm 29.92 1013.2 0.00 0 0.0 0.000
26 00:00 16.1 4.5 46 Calm 29.93 1013.6 0.00 0 0.0 3.505
25 23:00 17.2 3.1 39 Calm 29.94 1013.8 0.00 0 0.0 3.454
25 22:00 17.8 2.9 37 NNW 0 G 4 29.95 1014.1 0.00 0 0.0 3.378
25 21:00 18.9 2.7 25.6 18.7 34 ESE 0 G 9 29.94 1013.8 0.00 0 0.0 3.302
25 20:00 18.8 6.6 45 NNW 4 G 6 29.95 1014.2 0.00 0 0.0 3.226
25 19:00 20.7 7.0 41 E 1 G 6 29.91 1013.0 0.00 0 0.0 3.175
25 18:00 23.1 7.6 37 SSE 3 G 9 29.91 1012.7 0.00 59 0.0 3.048
25 17:00 25.3 7.0 31 ESE 3 G 11 29.92 1013.1 0.00 272 0.0 2.819
25 16:00 25.6 5.8 28 E 4 G 11 29.93 1013.6 0.00 449 0.0 2.489
25 15:00 24.7 6.0 24.8 12.5 30 SE 4 G 11 29.95 1014.4 0.00 618 0.0 2.108
25 14:00 23.9 7.1 34 SSE 3 G 8 29.99 1015.5 0.00 738 0.0 1.676
25 13:00 22.4 7.4 38 SSE 2 G 8 30.02 1016.6 0.00 788 0.0 1.270
25 12:00 20.6 7.9 44 SE 4 G 6 30.04 1017.4 0.00 776 0.0 0.889
25 11:00 18.2 7.3 49 N 3 G 4 30.07 1018.4 0.00 709 0.0 0.559
25 10:00 16.1 6.8 54 WSW 0 G 4 30.08 1018.8 0.00 588 0.0 0.330
25 09:00 12.5 7.2 12.5 8.5 70 N 3 G 4 30.09 1019.0 0.00 362 0.0 0.203
25 08:00 10.9 6.7 75 NW 1 G 4 30.09 1019.0 0.00 240 0.0 0.152
25 07:00 8.7 5.3 79 S 0 G 3 30.09 1019.0 0.00 22 0.0 0.152
25 06:00 8.9 5.1 77 S 0 G 4 30.09 1018.9 0.00 0 0.0 0.127
25 05:00 10.4 5.8 73 S 0 G 3 30.09 1018.9 0.00 0 0.0 0.127
25 04:00 11.4 5.9 69 SSW 0 G 3 30.08 1018.6 0.00 0 0.0 0.102
25 03:00 12.3 5.2 14.8 12.0 62 S 0 G 4 30.08 1018.8 0.00 0 0.0 0.051
25 02:00 13.0 5.7 61 Calm 30.09 1019.0 0.00 0 0.0 0.025
25 01:00 13.4 4.8 56 Calm 30.09 1019.0 0.00 0 0.0 0.000
25 00:00 13.2 4.6 56 ENE 0 G 4 30.09 1018.9 0.00 0 0.0 3.404
24 23:00 13.3 4.7 56 NNE 0 G 4 30.08 1018.8 0.00 0 0.0 3.378
24 22:00 14.5 5.3 54 Calm 30.08 1018.7 0.00 0 0.0 3.327
24 21:00 14.8 5.3 23.3 14.8 53 E 1 G 4 30.07 1018.4 0.00 0 0.0 3.277
24 20:00 16.3 6.4 52 ENE 0 G 3 30.06 1017.9 0.00 0 0.0 3.226
24 19:00 17.9 4.9 42 E 3 G 8 30.06 1017.9 0.00 0 0.0 3.226
24 18:00 21.7 3.4 30 ESE 3 G 6 30.04 1017.4 0.00 44 0.0 3.175

Data generated by WxSolution Version 1.8.4.2, Build 2009.03.29.